Time;durP1;ratioP1;P1;durP2;ratioP2;P2;SDS_P1;SDS_P2;PMS_P1;PMS_P2;Temp;Humidity;BMP_temperature;BMP_pressure;BME280_temperature;BME280_humidity;BME280_pressure;Samples;Min_cycle;Max_cycle;Signal;HPM_P1;HPM_P2
2022/03/27 00:02:08;;;;;;;2.88;1.40;;;10.00;80.50;;;;;;4994237;28;20092;-78
2022/03/27 00:04:36;;;;;;;2.90;1.00;;;10.00;80.60;;;;;;4976975;28;20116;-78
2022/03/27 00:07:03;;;;;;;2.60;1.05;;;10.00;80.50;;;;;;4984970;28;20057;-78
2022/03/27 00:09:30;;;;;;;2.67;1.13;;;10.10;80.60;;;;;;4978406;28;21170;-77
2022/03/27 00:11:57;;;;;;;2.80;1.63;;;10.10;80.60;;;;;;4987663;28;20056;-78
2022/03/27 00:14:25;;;;;;;3.03;1.48;;;10.10;80.70;;;;;;4985817;28;20038;-78
2022/03/27 00:16:52;;;;;;;3.38;1.58;;;10.10;80.90;;;;;;4982414;28;20498;-77
2022/03/27 00:19:20;;;;;;;2.40;1.10;;;10.10;80.80;;;;;;4993748;28;20070;-77
2022/03/27 00:21:47;;;;;;;3.00;1.50;;;10.10;80.80;;;;;;4997867;28;20128;-77
2022/03/27 00:24:14;;;;;;;3.15;1.50;;;10.10;81.00;;;;;;4981359;28;20056;-78
2022/03/27 00:26:43;;;;;;;2.83;1.35;;;10.00;81.10;;;;;;4994171;28;20045;-77
2022/03/27 00:29:11;;;;;;;4.05;1.98;;;10.10;81.10;;;;;;5014422;28;20077;-77
2022/03/27 00:31:38;;;;;;;4.82;2.47;;;10.10;81.30;;;;;;5015292;28;20502;-77
2022/03/27 00:34:06;;;;;;;5.63;3.00;;;10.10;81.40;;;;;;4986363;28;20042;-78
2022/03/27 00:36:33;;;;;;;3.83;2.00;;;10.10;81.40;;;;;;5014697;28;20433;-78
2022/03/27 00:39:00;;;;;;;3.85;2.50;;;10.00;81.50;;;;;;4997722;28;20108;-77
2022/03/27 00:41:27;;;;;;;3.20;1.67;;;10.00;81.40;;;;;;4970649;28;20096;-77
2022/03/27 00:43:54;;;;;;;4.05;1.80;;;10.00;81.40;;;;;;5012548;28;20046;-78
2022/03/27 00:46:21;;;;;;;2.58;1.35;;;10.10;81.50;;;;;;4972934;28;20049;-77
2022/03/27 00:48:48;;;;;;;3.75;1.92;;;10.10;81.50;;;;;;4954357;28;20061;-77
2022/03/27 00:51:15;;;;;;;4.63;1.60;;;10.10;81.50;;;;;;4967106;28;20050;-78
2022/03/27 00:53:42;;;;;;;3.60;1.90;;;10.10;81.60;;;;;;5012708;28;20117;-77
2022/03/27 00:56:09;;;;;;;3.38;1.83;;;10.10;81.50;;;;;;4981036;28;20042;-77
2022/03/27 00:58:37;;;;;;;3.88;1.67;;;10.10;81.70;;;;;;4996978;28;20572;-78
2022/03/27 01:01:16;;;;;;;3.95;2.17;;;10.20;81.70;;;;;;4982970;28;20054;-78
2022/03/27 01:03:47;;;;;;;2.90;1.40;;;10.20;81.70;;;;;;5024584;28;20517;-77
2022/03/27 01:06:31;;;;;;;4.07;2.22;;;10.20;81.60;;;;;;4980728;28;20137;-77
2022/03/27 01:11:44;;;;;;;4.18;1.95;;;10.10;81.60;;;;;;5024903;28;20135;-77
2022/03/27 01:14:12;;;;;;;4.90;1.77;;;10.10;81.70;;;;;;4995800;28;20060;-77
2022/03/27 01:16:44;;;;;;;4.80;2.67;;;10.10;81.70;;;;;;5001495;28;20037;-77
2022/03/27 01:19:12;;;;;;;;;;;10.10;81.90;;;;;;4997100;28;20050;-78
2022/03/27 01:21:45;;;;;;;5.10;2.30;;;10.10;81.80;;;;;;5012899;28;19925;-77
2022/03/27 01:24:15;;;;;;;4.05;2.30;;;10.00;81.90;;;;;;5013746;28;20045;-77
2022/03/27 01:26:43;;;;;;;3.95;1.95;;;10.10;81.90;;;;;;4995985;28;20046;-77
2022/03/27 01:29:10;;;;;;;4.65;2.72;;;10.10;81.90;;;;;;5000672;28;20084;-77
2022/03/27 01:31:37;;;;;;;3.95;2.40;;;10.00;82.00;;;;;;4980195;28;20142;-77
2022/03/27 01:34:05;;;;;;;4.38;2.72;;;10.00;82.10;;;;;;4993585;28;20068;-77
2022/03/27 01:36:35;;;;;;;4.95;3.13;;;10.00;82.10;;;;;;4996133;28;20107;-77
2022/03/27 01:39:10;;;;;;;4.88;2.70;;;10.00;82.30;;;;;;5000376;28;20046;-77
2022/03/27 01:41:38;;;;;;;4.80;2.47;;;10.00;82.20;;;;;;5003163;28;20054;-77
2022/03/27 01:44:14;;;;;;;4.57;2.42;;;10.00;82.30;;;;;;5005321;28;20061;-77
2022/03/27 01:46:43;;;;;;;5.22;3.00;;;10.00;82.50;;;;;;5005054;28;20046;-78
2022/03/27 01:49:12;;;;;;;4.78;2.45;;;9.90;82.50;;;;;;4996507;28;20461;-78
2022/03/27 01:51:40;;;;;;;4.50;2.38;;;10.00;82.50;;;;;;5006609;28;20449;-78
2022/03/27 01:54:08;;;;;;;2.85;1.42;;;9.90;82.50;;;;;;5001062;28;20212;-78
2022/03/27 01:56:37;;;;;;;3.85;1.80;;;9.90;82.50;;;;;;4979577;28;20383;-78
2022/03/27 01:59:07;;;;;;;5.53;2.58;;;10.00;82.40;;;;;;4995899;28;20440;-77
2022/03/27 02:01:36;;;;;;;3.95;2.10;;;10.00;82.50;;;;;;5013800;28;20044;-78
2022/03/27 02:04:04;;;;;;;4.85;2.70;;;10.00;82.50;;;;;;5004758;28;20050;-78
2022/03/27 02:06:33;;;;;;;4.07;2.55;;;10.00;82.60;;;;;;4994172;28;20155;-77
2022/03/27 02:09:00;;;;;;;4.65;2.78;;;9.90;82.50;;;;;;4979925;28;20050;-78
2022/03/27 02:11:27;;;;;;;4.47;2.47;;;9.90;82.70;;;;;;4995785;28;20049;-78
2022/03/27 02:13:54;;;;;;;4.15;2.40;;;9.90;82.70;;;;;;4995530;28;20053;-78
2022/03/27 02:16:21;;;;;;;3.58;2.28;;;9.90;82.70;;;;;;4980028;28;20042;-78
2022/03/27 02:18:50;;;;;;;4.80;2.33;;;9.80;82.80;;;;;;5011462;28;20141;-78
2022/03/27 02:21:17;;;;;;;4.53;2.67;;;9.80;82.90;;;;;;4988027;28;20462;-79
2022/03/27 02:23:44;;;;;;;5.30;2.45;;;9.80;82.90;;;;;;5012697;28;20482;-78
2022/03/27 02:26:11;;;;;;;3.33;1.77;;;9.70;82.90;;;;;;4978894;28;20037;-78
2022/03/27 02:28:42;;;;;;;3.63;1.73;;;9.70;82.90;;;;;;4976645;28;20093;-78
2022/03/27 02:31:09;;;;;;;5.10;2.70;;;9.70;82.90;;;;;;5003769;28;20080;-76
2022/03/27 02:33:37;;;;;;;4.53;2.65;;;9.70;83.10;;;;;;4994865;28;20146;-77
2022/03/27 02:36:10;;;;;;;5.28;2.28;;;9.70;83.10;;;;;;5011608;28;20041;-77
2022/03/27 02:38:37;;;;;;;4.20;1.90;;;9.70;83.00;;;;;;4974994;28;20047;-78
2022/03/27 02:41:05;;;;;;;5.20;2.72;;;9.70;83.00;;;;;;5011289;28;20069;-77
2022/03/27 02:43:32;;;;;;;5.05;2.50;;;9.70;83.00;;;;;;4998861;28;20054;-78
2022/03/27 02:46:00;;;;;;;4.18;2.15;;;9.70;83.00;;;;;;4994233;28;20060;-77
2022/03/27 02:48:27;;;;;;;4.70;2.55;;;9.70;83.00;;;;;;4994580;28;20042;-77
2022/03/27 02:50:54;;;;;;;4.70;2.15;;;9.70;83.00;;;;;;4992037;28;20061;-77
2022/03/27 02:53:21;;;;;;;4.68;2.50;;;9.70;83.00;;;;;;4994706;28;20078;-77
2022/03/27 02:55:51;;;;;;;4.18;2.10;;;9.70;83.00;;;;;;4983271;28;20149;-77
2022/03/27 02:58:18;;;;;;;4.22;2.30;;;9.70;83.60;;;;;;4994581;28;20058;-77
2022/03/27 03:00:45;;;;;;;4.18;2.25;;;9.60;82.90;;;;;;4977121;28;20071;-77
2022/03/27 03:03:13;;;;;;;4.10;1.92;;;9.60;82.90;;;;;;4981166;28;20055;-76
2022/03/27 03:05:41;;;;;;;4.70;2.42;;;9.60;82.90;;;;;;4975445;28;20070;-77
2022/03/27 03:08:12;;;;;;;5.85;2.47;;;9.60;82.90;;;;;;4991083;28;20111;-77
2022/03/27 03:10:40;;;;;;;5.10;2.58;;;9.50;82.90;;;;;;4997023;28;20521;-77
2022/03/27 03:13:08;;;;;;;8.07;2.75;;;9.50;82.90;;;;;;4983689;28;20379;-76
2022/03/27 03:15:37;;;;;;;6.70;3.20;;;9.40;83.00;;;;;;4974987;28;20045;-77
2022/03/27 03:18:04;;;;;;;8.38;3.63;;;9.30;83.00;;;;;;4999259;28;20043;-77
2022/03/27 03:20:32;;;;;;;7.35;3.75;;;9.20;83.20;;;;;;4992586;28;20114;-77
2022/03/27 03:22:59;;;;;;;7.32;2.95;;;9.10;83.30;;;;;;5003114;28;20053;-77
2022/03/27 03:25:27;;;;;;;8.40;4.00;;;9.10;83.40;;;;;;4963710;28;20113;-76
2022/03/27 03:27:54;;;;;;;7.47;3.35;;;9.10;83.40;;;;;;4991819;28;20046;-77
2022/03/27 03:30:22;;;;;;;9.45;4.22;;;9.10;83.50;;;;;;4971538;28;20077;-77
2022/03/27 03:32:51;;;;;;;7.13;3.42;;;9.10;83.60;;;;;;4976014;28;20046;-77
2022/03/27 03:35:21;;;;;;;8.05;3.45;;;9.00;83.60;;;;;;4974208;28;20054;-77
2022/03/27 03:38:07;;;;;;;7.80;3.72;;;9.00;83.60;;;;;;4987537;28;20046;-77
2022/03/27 03:40:35;;;;;;;7.07;2.85;;;9.00;83.60;;;;;;4975187;28;20077;-77
2022/03/27 03:43:02;;;;;;;8.68;3.58;;;9.00;83.60;;;;;;4964833;28;20047;-77
2022/03/27 03:45:29;;;;;;;7.32;3.15;;;9.00;83.50;;;;;;4990038;28;20101;-76
2022/03/27 03:47:56;;;;;;;6.88;3.03;;;9.00;83.60;;;;;;4991545;28;20046;-77
2022/03/27 03:50:23;;;;;;;9.18;3.88;;;9.00;83.50;;;;;;4991222;28;21315;-77
2022/03/27 03:52:50;;;;;;;9.43;3.75;;;9.10;83.60;;;;;;4971403;28;20129;-77
2022/03/27 03:55:17;;;;;;;6.65;2.85;;;9.10;83.50;;;;;;4989626;28;20042;-76
2022/03/27 03:57:44;;;;;;;5.82;2.15;;;9.10;83.50;;;;;;4990562;28;20030;-76
2022/03/27 04:00:11;;;;;;;6.75;3.22;;;9.10;83.50;;;;;;4990853;28;20054;-76
2022/03/27 04:02:38;;;;;;;6.57;3.15;;;9.10;83.40;;;;;;4991179;28;20537;-76
2022/03/27 04:05:06;;;;;;;8.30;3.00;;;9.10;83.40;;;;;;4971393;28;20050;-77
2022/03/27 04:07:33;;;;;;;8.23;3.30;;;9.20;83.50;;;;;;4991968;28;20073;-77
2022/03/27 04:10:00;;;;;;;6.60;2.80;;;9.20;83.40;;;;;;4990977;28;20081;-77
2022/03/27 04:12:28;;;;;;;7.63;3.78;;;9.20;83.40;;;;;;4990614;28;20078;-77
2022/03/27 04:14:55;;;;;;;7.78;3.40;;;9.20;83.40;;;;;;4999405;28;20039;-77
2022/03/27 04:17:22;;;;;;;8.27;4.00;;;9.20;83.40;;;;;;4997065;28;20050;-77
2022/03/27 04:19:50;;;;;;;8.35;3.55;;;9.20;83.40;;;;;;4978671;28;20073;-76
2022/03/27 04:22:17;;;;;;;10.35;4.18;;;9.10;83.50;;;;;;4990876;28;20042;-77
2022/03/27 04:24:45;;;;;;;9.70;4.32;;;9.00;83.60;;;;;;4975604;28;20060;-77
2022/03/27 04:27:12;;;;;;;8.40;4.13;;;8.90;83.60;;;;;;4973893;28;20054;-77
2022/03/27 04:29:39;;;;;;;9.68;4.22;;;8.80;83.70;;;;;;4991923;28;20557;-76
2022/03/27 04:32:06;;;;;;;9.00;4.07;;;8.80;83.80;;;;;;4991552;28;20050;-77
2022/03/27 04:34:34;;;;;;;8.95;3.47;;;8.70;83.80;;;;;;4972385;28;20054;-79
2022/03/27 04:37:03;;;;;;;8.25;3.13;;;8.70;83.90;;;;;;4973478;28;20050;-77
2022/03/27 04:39:30;;;;;;;7.45;3.40;;;8.70;84.00;;;;;;4998530;28;20140;-79
2022/03/27 04:41:57;;;;;;;8.13;3.83;;;8.70;83.90;;;;;;4963856;28;20045;-78
2022/03/27 04:44:24;;;;;;;7.55;2.90;;;8.70;83.80;;;;;;4989727;28;20054;-78
2022/03/27 04:46:51;;;;;;;7.25;3.63;;;8.70;83.80;;;;;;4964569;28;20042;-78
2022/03/27 04:49:18;;;;;;;7.88;3.70;;;8.60;83.70;;;;;;5005052;28;20042;-78
2022/03/27 04:51:45;;;;;;;7.25;3.47;;;8.60;83.70;;;;;;4990414;28;20047;-78
2022/03/27 04:54:12;;;;;;;7.20;3.70;;;8.60;83.70;;;;;;4987663;28;20046;-78
2022/03/27 04:56:39;;;;;;;6.97;3.72;;;8.50;83.70;;;;;;5006589;28;20046;-78
2022/03/27 04:59:06;;;;;;;8.18;3.42;;;8.40;83.70;;;;;;4973013;28;20400;-78
2022/03/27 05:01:33;;;;;;;7.15;3.20;;;8.40;83.80;;;;;;4965370;28;20047;-78
2022/03/27 05:04:04;;;;;;;8.80;4.38;;;8.20;83.80;;;;;;4973823;28;20482;-78
2022/03/27 05:06:31;;;;;;;7.90;4.03;;;8.10;84.10;;;;;;4970869;28;20101;-78
2022/03/27 05:08:58;;;;;;;7.25;3.78;;;8.10;84.10;;;;;;4992524;28;20050;-78
2022/03/27 05:11:28;;;;;;;8.93;4.18;;;8.10;84.10;;;;;;5010379;28;20148;-78
2022/03/27 05:13:56;;;;;;;9.45;4.90;;;8.10;84.10;;;;;;4993758;28;20034;-78
2022/03/27 05:16:23;;;;;;;8.07;3.85;;;8.10;84.30;;;;;;4993754;28;20066;-78
2022/03/27 05:18:50;;;;;;;9.57;3.70;;;8.10;84.10;;;;;;4992586;28;20078;-78
2022/03/27 05:21:17;;;;;;;6.28;3.15;;;8.00;84.00;;;;;;4993909;28;20105;-78
2022/03/27 05:23:45;;;;;;;8.05;3.60;;;8.00;84.00;;;;;;4993991;28;20100;-78
2022/03/27 05:26:12;;;;;;;7.70;4.10;;;8.00;84.00;;;;;;4977225;28;20100;-78
2022/03/27 05:28:39;;;;;;;8.30;3.70;;;7.80;84.00;;;;;;4976410;28;20054;-78
2022/03/27 05:31:09;;;;;;;8.35;3.38;;;7.80;84.10;;;;;;4993407;28;20057;-78
2022/03/27 05:33:37;;;;;;;7.43;3.67;;;7.70;84.20;;;;;;4992862;28;20465;-78
2022/03/27 05:36:05;;;;;;;6.90;3.28;;;7.70;84.30;;;;;;4993507;28;20395;-78
2022/03/27 05:38:32;;;;;;;8.75;3.97;;;7.60;84.20;;;;;;4992208;28;20042;-77
2022/03/27 05:41:00;;;;;;;8.43;3.90;;;7.60;84.40;;;;;;4962824;28;20101;-77
2022/03/27 05:43:27;;;;;;;7.47;3.65;;;7.60;84.30;;;;;;5025698;28;20442;-77
2022/03/27 05:45:54;;;;;;;6.47;2.85;;;7.60;84.30;;;;;;4964499;28;20081;-77
2022/03/27 05:48:21;;;;;;;7.28;3.15;;;7.60;84.20;;;;;;4991830;28;20054;-77
2022/03/27 05:50:51;;;;;;;6.55;3.05;;;7.60;84.20;;;;;;4994374;28;20545;-79
2022/03/27 05:53:20;;;;;;;4.82;2.63;;;7.60;84.20;;;;;;4963936;28;20525;-77
2022/03/27 05:55:47;;;;;;;5.25;2.35;;;7.60;84.20;;;;;;4976723;28;20042;-78
2022/03/27 05:58:16;;;;;;;5.95;2.47;;;7.60;84.20;;;;;;4992239;28;20449;-78
2022/03/27 06:00:43;;;;;;;6.93;2.90;;;7.60;84.10;;;;;;4978777;28;20062;-77
2022/03/27 06:03:10;;;;;;;6.80;3.28;;;7.60;84.00;;;;;;4998893;28;20046;-77
2022/03/27 06:05:38;;;;;;;6.40;3.13;;;7.60;84.00;;;;;;4991384;28;20054;-77
2022/03/27 06:08:05;;;;;;;8.30;4.07;;;7.60;84.00;;;;;;4985291;28;20069;-78
2022/03/27 06:10:33;;;;;;;8.70;4.15;;;7.60;84.00;;;;;;4975737;28;20104;-77
2022/03/27 06:13:01;;;;;;;8.40;4.75;;;7.50;84.00;;;;;;4995883;28;20580;-77
2022/03/27 06:15:29;;;;;;;7.90;3.67;;;7.50;84.00;;;;;;5002231;28;20707;-77
2022/03/27 06:17:57;;;;;;;8.50;4.05;;;7.50;84.00;;;;;;4992345;28;20045;-78
2022/03/27 06:20:26;;;;;;;8.95;4.32;;;7.50;84.10;;;;;;5012465;28;20046;-78
2022/03/27 06:22:54;;;;;;;6.20;2.97;;;7.50;84.00;;;;;;5012983;28;20494;-78
2022/03/27 06:25:24;;;;;;;6.78;3.65;;;7.60;84.00;;;;;;5002722;28;20510;-78
2022/03/27 06:27:52;;;;;;;8.35;3.40;;;7.60;83.90;;;;;;4993391;28;20498;-78
2022/03/27 06:30:21;;;;;;;8.35;3.75;;;7.70;83.90;;;;;;5012901;28;20046;-77
2022/03/27 06:32:49;;;;;;;7.88;3.72;;;7.70;83.80;;;;;;4983066;28;20058;-78
2022/03/27 06:35:21;;;;;;;11.18;4.78;;;7.70;83.70;;;;;;4985905;28;20049;-78
2022/03/27 06:37:55;;;;;;;10.95;4.97;;;7.60;83.80;;;;;;4983914;28;20117;-77
2022/03/27 06:40:24;;;;;;;9.43;3.78;;;7.60;83.80;;;;;;5013169;28;20236;-78
2022/03/27 06:42:52;;;;;;;9.40;4.68;;;7.60;83.90;;;;;;5012847;28;20038;-77
2022/03/27 06:45:24;;;;;;;10.07;5.35;;;7.60;83.70;;;;;;4991347;28;20128;-77
2022/03/27 06:47:51;;;;;;;9.07;4.35;;;7.60;83.70;;;;;;5011816;28;20079;-77
2022/03/27 06:50:23;;;;;;;7.72;3.53;;;7.60;83.50;;;;;;4994075;28;20045;-77
2022/03/27 06:52:52;;;;;;;8.52;3.72;;;7.70;83.40;;;;;;5012126;28;20080;-77
2022/03/27 06:55:20;;;;;;;10.18;4.30;;;7.70;83.20;;;;;;4974815;28;20568;-79
2022/03/27 06:57:47;;;;;;;10.98;4.53;;;7.70;83.10;;;;;;4991527;28;20064;-78
2022/03/27 07:03:09;;;;;;;8.55;3.63;;;7.80;83.10;;;;;;5022661;28;20041;-78
2022/03/27 07:05:44;;;;;;;8.27;3.65;;;7.80;82.90;;;;;;4997148;28;20042;-78
2022/03/27 07:08:22;;;;;;;7.70;2.78;;;7.80;82.80;;;;;;5003327;28;20073;-78
2022/03/27 07:10:50;;;;;;;6.95;3.38;;;7.90;82.90;;;;;;4973710;28;20466;-78
2022/03/27 07:13:19;;;;;;;8.43;3.70;;;7.90;82.80;;;;;;4987133;28;20566;-78
2022/03/27 07:15:47;;;;;;;7.82;3.67;;;8.10;82.60;;;;;;5000445;28;20053;-78
2022/03/27 07:18:16;;;;;;;6.28;2.63;;;8.10;82.40;;;;;;4986019;28;20519;-78
2022/03/27 07:20:46;;;;;;;8.27;3.88;;;8.20;82.30;;;;;;5005914;28;20041;-78
2022/03/27 07:23:16;;;;;;;7.20;3.13;;;8.30;82.20;;;;;;4999460;28;20493;-79
2022/03/27 07:25:46;;;;;;;7.82;3.92;;;8.40;82.00;;;;;;5009632;28;20075;-79
2022/03/27 07:28:14;;;;;;;7.93;3.80;;;8.50;81.90;;;;;;5010855;28;20042;-79
2022/03/27 07:30:42;;;;;;;8.50;4.18;;;8.60;81.80;;;;;;4991864;28;20069;-79
2022/03/27 07:33:10;;;;;;;8.25;3.05;;;8.70;81.70;;;;;;5004825;28;20509;-79
2022/03/27 07:35:38;;;;;;;6.35;2.47;;;8.70;81.50;;;;;;5031176;28;20060;-79
2022/03/27 07:38:05;;;;;;;7.30;3.05;;;8.80;81.30;;;;;;4972508;28;20064;-81
2022/03/27 07:40:33;;;;;;;6.45;3.65;;;8.90;81.20;;;;;;4999328;28;20100;-80
2022/03/27 07:43:00;;;;;;;6.00;2.97;;;8.90;81.10;;;;;;4984621;28;20141;-82
2022/03/27 07:45:30;;;;;;;6.15;2.75;;;9.00;81.10;;;;;;5010584;28;20042;-77
2022/03/27 07:48:01;;;;;;;6.57;3.00;;;9.00;81.10;;;;;;5010577;28;20569;-77
2022/03/27 07:50:30;;;;;;;6.75;2.97;;;9.00;80.90;;;;;;4992856;28;20054;-79
2022/03/27 07:53:02;;;;;;;7.28;3.60;;;9.10;80.90;;;;;;5026406;28;20418;-78
2022/03/27 07:55:30;;;;;;;5.30;2.40;;;9.20;80.80;;;;;;4989768;28;20096;-78
2022/03/27 07:57:58;;;;;;;7.70;2.90;;;9.20;80.70;;;;;;4983251;28;20038;-78
2022/03/27 08:00:27;;;;;;;5.20;2.90;;;9.20;80.50;;;;;;4989487;28;20051;-78
2022/03/27 08:02:56;;;;;;;6.68;2.88;;;9.30;80.50;;;;;;5006233;28;20050;-81
2022/03/27 08:05:24;;;;;;;8.25;3.50;;;9.30;80.40;;;;;;4999484;28;20053;-77
2022/03/27 08:07:51;;;;;;;6.90;2.90;;;9.30;80.30;;;;;;4971528;28;20558;-78
2022/03/27 08:10:19;;;;;;;7.22;3.30;;;9.40;80.30;;;;;;4979604;28;20096;-77
2022/03/27 08:12:46;;;;;;;6.68;3.17;;;9.50;80.10;;;;;;4972953;28;20049;-77
2022/03/27 08:15:15;;;;;;;6.97;3.50;;;9.60;79.90;;;;;;4999740;28;20405;-78
2022/03/27 08:17:51;;;;;;;9.65;4.25;;;9.60;79.60;;;;;;4990124;28;20038;-77
2022/03/27 08:20:18;;;;;;;8.45;3.67;;;9.70;79.40;;;;;;4992906;28;20040;-77
2022/03/27 08:22:46;;;;;;;7.15;3.10;;;9.70;79.20;;;;;;4991458;28;20072;-77
2022/03/27 08:26:55;;;;;;;6.97;3.13;;;9.70;79.10;;;;;;5006363;28;20043;-77
2022/03/27 08:28:00;;;;;;;7.32;3.05;;;9.80;78.90;;;;;;5004794;28;20146;-76
2022/03/27 08:30:27;;;;;;;6.88;3.05;;;9.90;78.90;;;;;;4995982;28;20074;-77
2022/03/27 08:32:54;;;;;;;7.10;3.28;;;9.90;78.80;;;;;;4992413;28;20054;-76
2022/03/27 08:35:21;;;;;;;6.85;2.78;;;10.00;78.50;;;;;;4999936;28;20056;-76
2022/03/27 08:37:48;;;;;;;5.57;3.20;;;10.10;78.50;;;;;;4982126;28;20043;-79
2022/03/27 08:40:17;;;;;;;6.90;3.15;;;10.10;78.30;;;;;;5003701;28;20048;-77
2022/03/27 08:42:44;;;;;;;4.85;2.42;;;10.20;78.10;;;;;;5014589;28;20049;-77
2022/03/27 08:45:12;;;;;;;7.03;3.38;;;10.20;78.00;;;;;;5008826;28;20077;-77
2022/03/27 08:47:40;;;;;;;7.57;3.03;;;10.20;77.70;;;;;;4998407;28;20129;-76
2022/03/27 08:50:51;;;;;;;6.43;2.90;;;10.20;77.60;;;;;;4986868;28;20067;-77
2022/03/27 08:53:37;;;;;;;6.88;3.20;;;10.20;77.50;;;;;;5005466;28;20124;-77
2022/03/27 08:56:08;;;;;;;6.47;3.08;;;10.30;77.50;;;;;;4996050;28;20088;-76
2022/03/27 08:58:40;;;;;;;5.65;2.72;;;10.20;77.40;;;;;;5000843;28;20054;-77
2022/03/27 09:01:08;;;;;;;5.20;2.45;;;10.30;77.40;;;;;;5007330;28;20055;-77
2022/03/27 09:03:38;;;;;;;6.43;2.85;;;10.30;77.30;;;;;;4996547;28;20108;-76
2022/03/27 09:06:07;;;;;;;5.07;2.22;;;10.40;77.40;;;;;;4990492;28;20080;-77
2022/03/27 09:08:37;;;;;;;5.53;2.63;;;10.40;77.10;;;;;;5001439;28;20045;-77
2022/03/27 09:11:04;;;;;;;6.22;2.88;;;10.40;77.00;;;;;;5015200;28;20046;-76
2022/03/27 09:13:32;;;;;;;5.72;3.03;;;10.40;77.00;;;;;;4990763;28;20042;-76
2022/03/27 09:16:05;;;;;;;4.55;1.88;;;10.50;76.90;;;;;;4999458;28;20053;-77
2022/03/27 09:18:51;;;;;;;5.88;2.63;;;10.50;76.70;;;;;;5011133;28;20050;-77
2022/03/27 09:21:25;;;;;;;5.25;2.63;;;10.60;76.70;;;;;;5003934;28;20061;-77
2022/03/27 09:24:00;;;;;;;7.53;3.65;;;10.60;76.40;;;;;;4994858;28;20101;-76
2022/03/27 09:26:28;;;;;;;6.25;2.75;;;10.70;76.20;;;;;;5005693;28;20489;-76
2022/03/27 09:29:10;;;;;;;7.57;3.72;;;10.70;76.10;;;;;;4981327;28;20054;-75
2022/03/27 09:31:37;;;;;;;7.75;3.20;;;10.80;75.80;;;;;;5002144;28;20515;-75
2022/03/27 09:34:07;;;;;;;6.18;2.63;;;10.70;75.80;;;;;;4994792;28;20152;-75
2022/03/27 09:36:42;;;;;;;8.65;3.83;;;10.80;75.80;;;;;;4977678;28;20047;-76
2022/03/27 09:39:19;;;;;;;8.18;3.72;;;10.80;75.60;;;;;;5014890;28;20046;-76
2022/03/27 09:41:54;;;;;;;7.97;3.05;;;10.90;75.60;;;;;;5003386;28;20034;-76
2022/03/27 09:44:36;;;;;;;6.13;3.30;;;10.90;75.50;;;;;;5002373;28;20049;-76
2022/03/27 09:47:12;;;;;;;5.57;2.92;;;11.00;75.40;;;;;;5000363;28;20112;-77
2022/03/27 09:49:46;;;;;;;6.63;2.72;;;11.10;75.30;;;;;;5002665;28;20050;-76
2022/03/27 09:52:20;;;;;;;5.28;2.35;;;11.10;75.20;;;;;;5006221;28;20057;-76
2022/03/27 09:55:03;;;;;;;6.20;2.58;;;11.20;75.00;;;;;;4987399;28;20042;-76
2022/03/27 09:57:32;;;;;;;6.13;2.45;;;11.30;75.00;;;;;;4996778;28;20039;-75
2022/03/27 10:00:11;;;;;;;4.82;2.13;;;11.30;74.90;;;;;;5015619;28;20038;-75
2022/03/27 10:02:39;;;;;;;6.30;3.05;;;11.40;74.80;;;;;;4995584;28;20046;-76
2022/03/27 10:05:15;;;;;;;8.05;3.50;;;11.40;74.60;;;;;;5002117;28;20565;-76
2022/03/27 10:07:53;;;;;;;7.45;3.47;;;11.50;74.40;;;;;;4985266;28;20494;-80
2022/03/27 10:10:23;;;;;;;9.70;3.17;;;11.60;74.30;;;;;;4997852;28;20054;-79
2022/03/27 10:12:52;;;;;;;8.70;3.50;;;11.60;74.10;;;;;;5008165;28;20042;-79
2022/03/27 10:15:25;;;;;;;7.15;3.58;;;11.60;73.80;;;;;;5000258;28;20140;-79
2022/03/27 10:17:57;;;;;;;6.55;3.20;;;11.70;73.70;;;;;;5006817;28;20069;-79
2022/03/27 10:20:28;;;;;;;5.30;2.25;;;11.70;73.60;;;;;;4998664;28;20065;-79
2022/03/27 10:23:04;;;;;;;5.65;2.47;;;11.80;73.60;;;;;;4997755;28;20042;-79
2022/03/27 10:25:41;;;;;;;5.18;2.97;;;11.90;73.50;;;;;;5008787;28;20050;-79
2022/03/27 10:28:08;;;;;;;5.80;2.90;;;11.90;73.30;;;;;;5000883;28;20048;-79
2022/03/27 10:30:36;;;;;;;5.95;2.67;;;11.90;73.20;;;;;;4990810;28;20050;-79
2022/03/27 10:33:03;;;;;;;7.07;2.63;;;11.90;73.10;;;;;;5008544;28;20568;-79
2022/03/27 10:35:57;;;;;;;4.68;2.40;;;11.90;72.90;;;;;;4990579;28;20058;-80
2022/03/27 10:38:56;;;;;;;6.72;2.78;;;12.00;72.70;;;;;;5002276;28;20039;-79
2022/03/27 10:41:42;;;;;;;4.95;1.95;;;12.10;72.60;;;;;;5003167;28;20042;-80
2022/03/27 10:44:21;;;;;;;7.32;2.78;;;12.10;72.50;;;;;;4994200;28;20134;-79
2022/03/27 10:47:14;;;;;;;4.95;1.95;;;12.10;72.30;;;;;;5003314;28;20051;-79
2022/03/27 10:50:05;;;;;;;5.82;2.55;;;12.20;72.10;;;;;;5017048;28;20052;-80
2022/03/27 10:52:57;;;;;;;6.32;2.70;;;12.20;72.00;;;;;;5005393;28;20108;-79
2022/03/27 10:55:36;;;;;;;4.85;2.22;;;12.20;71.90;;;;;;5027053;28;20050;-79
2022/03/27 10:58:28;;;;;;;4.07;1.92;;;12.30;71.70;;;;;;5013518;28;20065;-79
2022/03/27 11:01:01;;;;;;;4.97;2.45;;;12.30;71.60;;;;;;4997626;28;20109;-79
2022/03/27 11:03:51;;;;;;;;;;;12.30;71.60;;;;;;4959885;28;20082;-79
2022/03/27 11:06:30;;;;;;;4.03;1.88;;;12.30;71.60;;;;;;4981369;28;19925;-79
2022/03/27 11:09:03;;;;;;;3.97;1.75;;;12.30;71.30;;;;;;4973649;28;20066;-79
2022/03/27 11:11:38;;;;;;;3.97;1.67;;;12.40;71.20;;;;;;4991599;28;20108;-82
2022/03/27 11:14:09;;;;;;;3.33;1.50;;;12.50;70.90;;;;;;4974272;28;20065;-79
2022/03/27 11:17:04;;;;;;;5.20;1.73;;;12.50;70.70;;;;;;4987739;28;20054;-79
2022/03/27 11:19:46;;;;;;;4.75;1.85;;;12.50;70.30;;;;;;4982692;28;20050;-79
2022/03/27 11:22:47;;;;;;;4.47;1.73;;;12.60;70.10;;;;;;4969985;28;20054;-79
2022/03/27 11:25:37;;;;;;;4.68;1.48;;;12.60;69.90;;;;;;4987888;28;20038;-79
2022/03/27 11:28:13;;;;;;;5.43;2.00;;;12.70;69.60;;;;;;4991235;28;20516;-79
2022/03/27 11:31:03;;;;;;;3.83;1.60;;;12.70;69.50;;;;;;4975044;28;20060;-79
2022/03/27 11:33:31;;;;;;;3.95;1.60;;;12.90;69.00;;;;;;4958830;28;20050;-79
2022/03/27 11:36:01;;;;;;;7.07;1.70;;;12.90;69.00;;;;;;4958505;28;20410;-80
2022/03/27 11:38:33;;;;;;;4.47;1.60;;;12.90;68.80;;;;;;4990923;28;20050;-80
2022/03/27 11:41:23;;;;;;;3.90;1.67;;;13.00;68.70;;;;;;4947152;28;20051;-79
2022/03/27 11:43:51;;;;;;;3.67;1.20;;;13.10;68.30;;;;;;4970679;28;20057;-76
2022/03/27 11:46:27;;;;;;;4.07;1.50;;;13.10;68.30;;;;;;4964561;28;20494;-76
2022/03/27 11:49:00;;;;;;;4.45;1.65;;;13.10;68.20;;;;;;4963241;28;20050;-76
2022/03/27 11:51:28;;;;;;;4.43;2.05;;;13.10;68.00;;;;;;4990712;28;20050;-76
2022/03/27 11:53:58;;;;;;;3.90;1.55;;;13.20;67.90;;;;;;4943132;28;20053;-76
2022/03/27 11:56:25;;;;;;;3.67;1.63;;;13.20;67.70;;;;;;4956104;28;20125;-76
2022/03/27 11:59:06;;;;;;;4.28;1.52;;;13.30;67.50;;;;;;4973518;28;20049;-76
2022/03/27 12:01:33;;;;;;;3.35;1.42;;;13.30;67.00;;;;;;4996210;28;20450;-76
2022/03/27 12:04:01;;;;;;;4.30;1.48;;;13.30;67.00;;;;;;4973595;28;20050;-76
2022/03/27 12:06:29;;;;;;;2.92;1.45;;;13.40;66.90;;;;;;4973856;28;20058;-76
2022/03/27 12:08:57;;;;;;;4.10;1.35;;;13.40;66.90;;;;;;4975788;28;20077;-76
2022/03/27 12:11:26;;;;;;;4.40;1.35;;;13.30;66.60;;;;;;4991604;28;20046;-77
2022/03/27 12:13:56;;;;;;;3.55;1.50;;;13.40;66.50;;;;;;4974062;28;20121;-76
2022/03/27 12:16:25;;;;;;;4.03;1.35;;;13.40;66.30;;;;;;4992585;28;20042;-77
2022/03/27 12:18:53;;;;;;;5.05;1.50;;;13.40;66.20;;;;;;4993638;28;20043;-76
2022/03/27 12:21:22;;;;;;;5.65;1.60;;;13.40;66.00;;;;;;4965543;28;20082;-76
2022/03/27 12:24:04;;;;;;;5.07;1.60;;;13.40;65.90;;;;;;4995132;28;20074;-76
2022/03/27 12:29:43;;;;;;;4.78;1.48;;;13.50;65.80;;;;;;4998834;28;20137;-77
2022/03/27 12:32:12;;;;;;;3.85;1.00;;;13.50;65.70;;;;;;4994578;28;20062;-76
2022/03/27 12:34:44;;;;;;;4.18;1.20;;;13.50;65.60;;;;;;4977813;28;20043;-77
2022/03/27 12:37:20;;;;;;;2.80;1.00;;;13.50;65.50;;;;;;4991473;28;20054;-77
2022/03/27 12:39:50;;;;;;;3.50;1.20;;;13.50;65.50;;;;;;4994797;28;20035;-77
2022/03/27 12:42:49;;;;;;;3.70;0.95;;;13.60;65.40;;;;;;5006730;28;20050;-77
2022/03/27 12:45:18;;;;;;;3.53;1.10;;;13.60;65.10;;;;;;4992239;28;20081;-77
2022/03/27 12:47:47;;;;;;;3.42;1.17;;;13.60;65.00;;;;;;5003357;28;20073;-77
2022/03/27 12:50:36;;;;;;;3.78;1.30;;;13.70;65.00;;;;;;4994559;28;20053;-76
2022/03/27 12:53:09;;;;;;;3.85;1.40;;;13.70;64.80;;;;;;4993814;28;20498;-77
2022/03/27 12:55:43;;;;;;;3.80;1.30;;;13.70;64.90;;;;;;4993416;28;20042;-77
2022/03/27 12:58:11;;;;;;;2.80;1.13;;;13.70;64.70;;;;;;4993722;28;20043;-76
2022/03/27 13:00:43;;;;;;;4.45;1.35;;;13.80;64.60;;;;;;5010266;28;20050;-76
2022/03/27 13:03:15;;;;;;;4.72;1.33;;;13.80;64.60;;;;;;4995258;28;20046;-76
2022/03/27 13:06:01;;;;;;;2.78;1.42;;;13.80;64.40;;;;;;5008650;28;20064;-76
2022/03/27 13:08:35;;;;;;;3.08;1.38;;;13.90;64.20;;;;;;4992299;28;20046;-76
2022/03/27 13:11:06;;;;;;;3.67;1.25;;;13.90;64.30;;;;;;5026382;28;20498;-76
2022/03/27 13:13:42;;;;;;;3.63;1.38;;;14.00;64.10;;;;;;4998224;28;20054;-76
2022/03/27 13:16:29;;;;;;;3.70;1.60;;;14.00;64.00;;;;;;4993052;28;20042;-76
2022/03/27 13:19:05;;;;;;;3.80;1.42;;;14.00;63.90;;;;;;4992470;28;20101;-76
2022/03/27 13:21:37;;;;;;;3.88;1.30;;;14.00;64.00;;;;;;4993795;28;20042;-75